Time;durP1;ratioP1;P1;durP2;ratioP2;P2;SDS_P1;SDS_P2;PMS_P1;PMS_P2;Temp;Humidity;BMP_temperature;BMP_pressure;BME280_temperature;BME280_humidity;BME280_pressure;Samples;Min_cycle;Max_cycle;Signal;HPM_P1;HPM_P2
2022/03/09 00:01:23;;;;;;;0.93;0.93;;;;;;;;;;4932975;29;20214;-62
2022/03/09 00:03:50;;;;;;;1.20;1.10;;;;;;;;;;4946276;29;20207;-61
2022/03/09 00:06:19;;;;;;;1.90;1.33;;;;;;;;;;4941151;28;20652;-61
2022/03/09 00:08:46;;;;;;;2.37;1.23;;;;;;;;;;4961135;28;20284;-61
2022/03/09 00:11:13;;;;;;;2.30;1.27;;;;;;;;;;4959538;28;20207;-62
2022/03/09 00:13:40;;;;;;;2.50;0.80;;;;;;;;;;4960857;28;20218;-61
2022/03/09 00:16:07;;;;;;;1.33;1.23;;;;;;;;;;4958813;28;20206;-61
2022/03/09 00:18:34;;;;;;;4.43;1.53;;;;;;;;;;4962656;28;20325;-63
2022/03/09 00:21:01;;;;;;;1.73;1.60;;;;;;;;;;4959983;28;20618;-61
2022/03/09 00:23:29;;;;;;;1.57;1.47;;;;;;;;;;4960562;28;20277;-61
2022/03/09 00:25:56;;;;;;;1.63;1.53;;;;;;;;;;4956958;28;20644;-61
2022/03/09 00:28:23;;;;;;;1.80;1.23;;;;;;;;;;4959542;28;20260;-61
2022/03/09 00:30:50;;;;;;;1.73;1.00;;;;;;;;;;4960366;28;20214;-61
2022/03/09 00:33:18;;;;;;;2.57;1.30;;;;;;;;;;4955145;28;20316;-61
2022/03/09 00:35:45;;;;;;;2.07;1.30;;;;;;;;;;4961290;28;20202;-61
2022/03/09 00:38:12;;;;;;;1.33;0.97;;;;;;;;;;4957673;28;20584;-60
2022/03/09 00:40:40;;;;;;;1.00;1.00;;;;;;;;;;4959696;28;20237;-63
2022/03/09 00:43:07;;;;;;;1.43;1.33;;;;;;;;;;4956380;28;20207;-63
2022/03/09 00:45:34;;;;;;;1.20;1.10;;;;;;;;;;4955611;28;20240;-63
2022/03/09 00:48:02;;;;;;;1.50;1.40;;;;;;;;;;4961058;28;20214;-62
2022/03/09 00:50:29;;;;;;;2.30;1.30;;;;;;;;;;4960508;28;20221;-63
2022/03/09 00:52:56;;;;;;;2.20;1.53;;;;;;;;;;4964194;28;20213;-63
2022/03/09 00:55:27;;;;;;;1.57;1.43;;;;;;;;;;4951320;28;20221;-63
2022/03/09 00:57:55;;;;;;;1.77;1.20;;;;;;;;;;4960307;28;20211;-63
2022/03/09 01:00:22;;;;;;;0.90;0.90;;;;;;;;;;4961062;28;20696;-63
2022/03/09 01:02:49;;;;;;;7.20;1.07;;;;;;;;;;4959548;28;20587;-63
2022/03/09 01:05:16;;;;;;;1.43;1.33;;;;;;;;;;4957662;28;20221;-63
2022/03/09 01:07:43;;;;;;;1.23;1.13;;;;;;;;;;4957852;28;20215;-63
2022/03/09 01:10:11;;;;;;;2.63;2.00;;;;;;;;;;4959387;28;20206;-63
2022/03/09 01:12:39;;;;;;;1.67;1.30;;;;;;;;;;4956302;28;20210;-63
2022/03/09 01:15:08;;;;;;;2.73;1.63;;;;;;;;;;4960122;28;20209;-63
2022/03/09 01:17:35;;;;;;;5.83;1.87;;;;;;;;;;4956738;28;20214;-61
2022/03/09 01:20:02;;;;;;;1.40;1.30;;;;;;;;;;4960790;28;20241;-61
2022/03/09 01:22:29;;;;;;;1.63;1.50;;;;;;;;;;4955917;28;20213;-61
2022/03/09 01:24:56;;;;;;;1.80;1.27;;;;;;;;;;4959044;28;20253;-62
2022/03/09 01:27:23;;;;;;;1.17;1.07;;;;;;;;;;4957097;28;20242;-61
2022/03/09 01:29:50;;;;;;;1.97;1.87;;;;;;;;;;4959404;28;20216;-61
2022/03/09 01:32:19;;;;;;;2.40;1.77;;;;;;;;;;4958492;28;20213;-63
2022/03/09 01:34:46;;;;;;;1.50;1.40;;;;;;;;;;4959344;28;20229;-62
2022/03/09 01:37:13;;;;;;;1.50;1.40;;;;;;;;;;4952114;28;20203;-62
2022/03/09 01:39:40;;;;;;;1.63;1.53;;;;;;;;;;4960440;28;20268;-62
2022/03/09 01:42:08;;;;;;;2.97;1.37;;;;;;;;;;4958482;28;20235;-62
2022/03/09 01:44:35;;;;;;;1.10;1.07;;;;;;;;;;4959209;28;20217;-62
2022/03/09 01:47:02;;;;;;;1.20;1.03;;;;;;;;;;4954050;28;20226;-62
2022/03/09 01:49:30;;;;;;;1.90;1.60;;;;;;;;;;4959330;28;20662;-62
2022/03/09 01:52:00;;;;;;;2.87;1.30;;;;;;;;;;4956048;28;20220;-62
2022/03/09 01:54:27;;;;;;;2.27;1.43;;;;;;;;;;4960506;28;20217;-62
2022/03/09 01:56:54;;;;;;;1.70;1.37;;;;;;;;;;4948809;28;20213;-62
2022/03/09 01:59:21;;;;;;;5.50;1.23;;;;;;;;;;4959713;28;20211;-65
2022/03/09 02:01:48;;;;;;;2.33;1.80;;;;;;;;;;4957078;28;20212;-62
2022/03/09 02:04:15;;;;;;;2.67;1.63;;;;;;;;;;4957463;28;20246;-62
2022/03/09 02:06:44;;;;;;;1.43;1.40;;;;;;;;;;4956205;28;20231;-62
2022/03/09 02:11:56;;;;;;;2.60;1.30;;;;;;;;;;4957930;28;20210;-62
2022/03/09 02:14:27;;;;;;;3.30;1.70;;;;;;;;;;4959838;28;20213;-62
2022/03/09 02:16:54;;;;;;;2.10;1.90;;;;;;;;;;4953897;28;20239;-64
2022/03/09 02:19:22;;;;;;;3.90;2.70;;;;;;;;;;4957072;28;20236;-62
2022/03/09 02:21:53;;;;;;;3.90;1.67;;;;;;;;;;4954959;28;20213;-62
2022/03/09 02:24:22;;;;;;;1.33;1.30;;;;;;;;;;4956995;28;20208;-61
2022/03/09 02:26:50;;;;;;;5.03;1.47;;;;;;;;;;4953473;28;20233;-61
2022/03/09 02:29:17;;;;;;;3.17;1.27;;;;;;;;;;4955037;28;20214;-63
2022/03/09 02:31:44;;;;;;;2.50;1.47;;;;;;;;;;4948551;29;20697;-61
2022/03/09 02:34:11;;;;;;;2.63;1.57;;;;;;;;;;4950946;29;20276;-61
2022/03/09 02:36:38;;;;;;;2.10;1.87;;;;;;;;;;4937690;29;20924;-61
2022/03/09 02:39:05;;;;;;;1.47;1.10;;;;;;;;;;4938010;29;20212;-61
2022/03/09 02:41:34;;;;;;;1.63;1.50;;;;;;;;;;4948446;29;20229;-62
2022/03/09 02:44:02;;;;;;;3.73;2.07;;;;;;;;;;4950079;28;20333;-62
2022/03/09 02:46:29;;;;;;;1.80;1.70;;;;;;;;;;4936212;29;20730;-62
2022/03/09 02:48:56;;;;;;;2.17;1.97;;;;;;;;;;4942868;29;20958;-62
2022/03/09 02:51:23;;;;;;;1.77;1.63;;;;;;;;;;4940380;29;20248;-61
2022/03/09 02:53:50;;;;;;;1.17;1.17;;;;;;;;;;4950201;28;20268;-62
2022/03/09 02:56:17;;;;;;;2.30;1.70;;;;;;;;;;4939404;28;20211;-62
2022/03/09 02:58:46;;;;;;;2.20;1.53;;;;;;;;;;4931759;29;20217;-61
2022/03/09 03:01:14;;;;;;;1.63;1.20;;;;;;;;;;4948316;29;20207;-62
2022/03/09 03:03:41;;;;;;;1.63;1.53;;;;;;;;;;4950623;29;20240;-62
2022/03/09 03:06:08;;;;;;;1.87;1.70;;;;;;;;;;4937763;29;20228;-61
2022/03/09 03:08:35;;;;;;;3.30;1.67;;;;;;;;;;4946123;29;20220;-61
2022/03/09 03:11:02;;;;;;;1.93;1.53;;;;;;;;;;4938647;29;20335;-61
2022/03/09 03:13:29;;;;;;;1.37;1.27;;;;;;;;;;4939033;29;20205;-61
2022/03/09 03:15:58;;;;;;;2.47;1.00;;;;;;;;;;4939221;28;20283;-60
2022/03/09 03:18:25;;;;;;;1.80;1.70;;;;;;;;;;4969744;28;20217;-61
2022/03/09 03:20:54;;;;;;;1.83;1.70;;;;;;;;;;4960074;28;20228;-61
2022/03/09 03:23:22;;;;;;;1.77;1.70;;;;;;;;;;4939555;29;20223;-60
2022/03/09 03:25:49;;;;;;;3.23;1.97;;;;;;;;;;4945547;29;20926;-60
2022/03/09 03:28:16;;;;;;;2.73;1.60;;;;;;;;;;4949444;29;20239;-61
2022/03/09 03:30:43;;;;;;;5.47;1.80;;;;;;;;;;4936223;29;20212;-61
2022/03/09 03:33:12;;;;;;;5.50;2.20;;;;;;;;;;4931154;29;20217;-61
2022/03/09 03:35:39;;;;;;;2.03;1.40;;;;;;;;;;4942667;29;20221;-61
2022/03/09 03:38:06;;;;;;;1.80;1.57;;;;;;;;;;4950524;29;20217;-61
2022/03/09 03:40:33;;;;;;;2.57;1.90;;;;;;;;;;4947261;29;20217;-61
2022/03/09 03:43:00;;;;;;;4.23;1.73;;;;;;;;;;4949459;28;20216;-61
2022/03/09 03:45:27;;;;;;;1.53;1.07;;;;;;;;;;4947411;29;20212;-61
2022/03/09 03:47:54;;;;;;;5.17;1.80;;;;;;;;;;4942570;29;20234;-60
2022/03/09 03:50:23;;;;;;;2.77;1.77;;;;;;;;;;4939795;29;20699;-61
2022/03/09 03:52:50;;;;;;;1.80;1.50;;;;;;;;;;4949899;29;20676;-61
2022/03/09 03:55:17;;;;;;;1.47;1.37;;;;;;;;;;4948887;28;20208;-60
2022/03/09 03:57:44;;;;;;;1.70;1.47;;;;;;;;;;4953558;29;20219;-60
2022/03/09 04:00:12;;;;;;;1.50;1.40;;;;;;;;;;4949785;29;20211;-60
2022/03/09 04:02:39;;;;;;;6.27;1.70;;;;;;;;;;4947419;29;20212;-60
2022/03/09 04:05:07;;;;;;;2.43;1.70;;;;;;;;;;4940384;29;20217;-60
2022/03/09 04:07:35;;;;;;;2.37;1.73;;;;;;;;;;4953364;29;20246;-60
2022/03/09 04:10:03;;;;;;;10.77;1.60;;;;;;;;;;4951138;29;20240;-60
2022/03/09 04:12:30;;;;;;;3.80;2.03;;;;;;;;;;4954057;28;20220;-61
2022/03/09 04:14:57;;;;;;;3.50;2.03;;;;;;;;;;4958693;28;20200;-61
2022/03/09 04:17:25;;;;;;;6.40;2.97;;;;;;;;;;4960319;28;20203;-61
2022/03/09 04:19:52;;;;;;;3.77;2.73;;;;;;;;;;4955106;28;20201;-61
2022/03/09 04:22:19;;;;;;;2.73;1.97;;;;;;;;;;4961029;28;20659;-61
2022/03/09 04:24:48;;;;;;;4.77;2.57;;;;;;;;;;4953783;28;20664;-61
2022/03/09 04:27:15;;;;;;;4.50;3.27;;;;;;;;;;4958324;28;20235;-60
2022/03/09 04:29:42;;;;;;;4.27;3.20;;;;;;;;;;4956674;28;20210;-61
2022/03/09 04:32:09;;;;;;;10.10;3.13;;;;;;;;;;4959956;28;20227;-60
2022/03/09 04:34:37;;;;;;;4.53;2.57;;;;;;;;;;4955127;28;20224;-62
2022/03/09 04:37:04;;;;;;;5.63;2.33;;;;;;;;;;4949826;29;20211;-60
2022/03/09 04:39:31;;;;;;;3.60;1.83;;;;;;;;;;4942249;29;20212;-61
2022/03/09 04:41:59;;;;;;;3.37;1.30;;;;;;;;;;4948703;29;21089;-60
2022/03/09 04:44:26;;;;;;;3.33;2.07;;;;;;;;;;4947542;29;20217;-60
2022/03/09 04:46:53;;;;;;;4.37;1.93;;;;;;;;;;4947510;28;20232;-60
2022/03/09 04:49:20;;;;;;;2.33;2.13;;;;;;;;;;4942801;29;20266;-60
2022/03/09 04:51:47;;;;;;;2.80;1.40;;;;;;;;;;4946884;29;20575;-60
2022/03/09 04:54:14;;;;;;;1.97;1.40;;;;;;;;;;4945894;29;20214;-61
2022/03/09 04:56:41;;;;;;;2.10;1.90;;;;;;;;;;4941318;29;20209;-61
2022/03/09 04:59:10;;;;;;;1.93;1.73;;;;;;;;;;4945971;29;20210;-60
2022/03/09 05:01:37;;;;;;;3.97;1.90;;;;;;;;;;4940530;29;20639;-60
2022/03/09 05:04:04;;;;;;;3.83;1.90;;;;;;;;;;4947352;29;20211;-60
2022/03/09 05:06:31;;;;;;;2.20;1.87;;;;;;;;;;4931924;29;20221;-61
2022/03/09 05:08:58;;;;;;;2.60;1.40;;;;;;;;;;4935911;29;20215;-61
2022/03/09 05:11:25;;;;;;;1.70;1.60;;;;;;;;;;4947706;29;20209;-60
2022/03/09 05:13:52;;;;;;;5.13;1.27;;;;;;;;;;4949061;29;20207;-60
2022/03/09 05:16:22;;;;;;;2.93;1.67;;;;;;;;;;4948462;29;20738;-60
2022/03/09 05:18:49;;;;;;;5.40;1.80;;;;;;;;;;4943790;29;20291;-60
2022/03/09 05:21:16;;;;;;;3.70;1.70;;;;;;;;;;4939833;29;20628;-60
2022/03/09 05:23:43;;;;;;;3.30;1.67;;;;;;;;;;4942253;28;20388;-60
2022/03/09 05:26:10;;;;;;;2.20;1.77;;;;;;;;;;4950330;28;20593;-60
2022/03/09 05:28:37;;;;;;;1.27;1.17;;;;;;;;;;4948831;29;20242;-61
2022/03/09 05:31:04;;;;;;;2.07;1.83;;;;;;;;;;4950695;29;20212;-60
2022/03/09 05:33:33;;;;;;;1.83;1.67;;;;;;;;;;4945772;29;20223;-62
2022/03/09 05:36:00;;;;;;;1.20;1.07;;;;;;;;;;4949789;29;20215;-63
2022/03/09 05:38:27;;;;;;;2.17;1.40;;;;;;;;;;4932200;29;20585;-63
2022/03/09 05:40:54;;;;;;;1.27;1.20;;;;;;;;;;4937545;29;20209;-63
2022/03/09 05:43:21;;;;;;;0.63;0.63;;;;;;;;;;4950238;28;20591;-63
2022/03/09 05:45:48;;;;;;;3.47;1.50;;;;;;;;;;4939343;29;20220;-63
2022/03/09 05:48:15;;;;;;;1.87;1.30;;;;;;;;;;4948608;29;20239;-63
2022/03/09 05:50:44;;;;;;;4.17;1.50;;;;;;;;;;4940617;29;20211;-63
2022/03/09 05:53:11;;;;;;;2.30;1.47;;;;;;;;;;4950008;28;20212;-63
2022/03/09 05:55:38;;;;;;;4.23;2.40;;;;;;;;;;4940458;29;20215;-63
2022/03/09 05:58:05;;;;;;;2.10;1.40;;;;;;;;;;4943508;29;20582;-61
2022/03/09 06:00:32;;;;;;;3.30;1.43;;;;;;;;;;4935181;29;20207;-61
2022/03/09 06:02:59;;;;;;;0.77;0.77;;;;;;;;;;4929789;29;20224;-61
2022/03/09 06:05:26;;;;;;;1.57;1.33;;;;;;;;;;4945283;29;20214;-61
2022/03/09 06:07:55;;;;;;;5.80;1.87;;;;;;;;;;4950022;29;20286;-61
2022/03/09 06:10:22;;;;;;;5.63;1.47;;;;;;;;;;4937905;29;20266;-60
2022/03/09 06:12:49;;;;;;;1.30;1.27;;;;;;;;;;4931495;29;20211;-61
2022/03/09 06:15:17;;;;;;;1.50;1.33;;;;;;;;;;4944242;29;20226;-61
2022/03/09 06:17:45;;;;;;;2.00;1.50;;;;;;;;;;4945308;28;20199;-61
2022/03/09 06:20:13;;;;;;;6.07;2.10;;;;;;;;;;4933793;29;20215;-61
2022/03/09 06:22:40;;;;;;;1.40;0.70;;;;;;;;;;4945282;28;20317;-62
2022/03/09 06:25:09;;;;;;;0.87;0.67;;;;;;;;;;4950321;29;20234;-62
2022/03/09 06:27:42;;;;;;;2.03;1.13;;;;;;;;;;4940877;29;20251;-61
2022/03/09 06:30:10;;;;;;;1.20;1.20;;;;;;;;;;4942221;29;20219;-64
2022/03/09 06:32:37;;;;;;;2.87;1.50;;;;;;;;;;4932219;29;20216;-64
2022/03/09 06:35:05;;;;;;;3.40;1.73;;;;;;;;;;4942145;28;20223;-64
2022/03/09 06:37:32;;;;;;;3.40;1.80;;;;;;;;;;4948447;29;20207;-64
2022/03/09 06:39:59;;;;;;;2.33;2.23;;;;;;;;;;4949868;29;20951;-64
2022/03/09 06:42:28;;;;;;;3.50;1.50;;;;;;;;;;4950106;29;20423;-64
2022/03/09 06:44:55;;;;;;;1.77;1.67;;;;;;;;;;4940364;29;20217;-64
2022/03/09 06:47:22;;;;;;;2.30;1.97;;;;;;;;;;4934385;29;20228;-63
2022/03/09 06:49:49;;;;;;;2.30;2.17;;;;;;;;;;4949901;29;20213;-64
2022/03/09 06:52:16;;;;;;;1.63;1.53;;;;;;;;;;4949931;29;20218;-64
2022/03/09 06:54:43;;;;;;;1.63;1.53;;;;;;;;;;4949630;29;20218;-64
2022/03/09 06:57:10;;;;;;;2.17;1.20;;;;;;;;;;4949917;29;20260;-64
2022/03/09 06:59:39;;;;;;;4.20;2.07;;;;;;;;;;4934812;29;20587;-64
2022/03/09 07:02:06;;;;;;;5.37;2.10;;;;;;;;;;4949574;28;20221;-64
2022/03/09 07:04:33;;;;;;;3.33;2.23;;;;;;;;;;4948619;29;20207;-64
2022/03/09 07:07:00;;;;;;;2.87;2.00;;;;;;;;;;4931266;29;20216;-63
2022/03/09 07:09:27;;;;;;;3.80;2.20;;;;;;;;;;4944917;29;20244;-64
2022/03/09 07:11:57;;;;;;;3.53;2.97;;;;;;;;;;4950003;29;20218;-64
2022/03/09 07:14:24;;;;;;;2.40;1.93;;;;;;;;;;4963922;28;20210;-64
2022/03/09 07:16:52;;;;;;;4.30;2.43;;;;;;;;;;4954411;28;20210;-64
2022/03/09 07:19:19;;;;;;;4.07;2.20;;;;;;;;;;4948314;29;20220;-64
2022/03/09 07:21:46;;;;;;;4.17;2.20;;;;;;;;;;4949445;29;20238;-64
2022/03/09 07:24:13;;;;;;;5.03;2.20;;;;;;;;;;4948649;29;20676;-64
2022/03/09 07:26:42;;;;;;;2.40;1.67;;;;;;;;;;4930560;29;20228;-64
2022/03/09 07:29:11;;;;;;;1.63;1.53;;;;;;;;;;4936907;28;20241;-64
2022/03/09 07:31:38;;;;;;;2.53;1.37;;;;;;;;;;4963507;28;20298;-63
2022/03/09 07:34:07;;;;;;;2.10;1.10;;;;;;;;;;4942127;28;20233;-64
2022/03/09 07:36:34;;;;;;;3.60;2.33;;;;;;;;;;4949818;29;20227;-64
2022/03/09 07:39:01;;;;;;;6.13;1.90;;;;;;;;;;4953289;29;20956;-64
2022/03/09 07:41:28;;;;;;;2.07;1.73;;;;;;;;;;4940128;29;20965;-64
2022/03/09 07:43:55;;;;;;;2.47;2.27;;;;;;;;;;4947247;28;20211;-64
2022/03/09 07:46:22;;;;;;;3.70;1.90;;;;;;;;;;4949490;28;20211;-62
2022/03/09 07:48:49;;;;;;;3.00;1.80;;;;;;;;;;4934085;29;20287;-62
2022/03/09 07:51:18;;;;;;;6.10;2.10;;;;;;;;;;4933880;29;20742;-64
2022/03/09 07:53:45;;;;;;;5.00;1.43;;;;;;;;;;4933960;29;20210;-63
2022/03/09 07:56:12;;;;;;;2.90;1.70;;;;;;;;;;4935042;29;20593;-65
2022/03/09 07:58:39;;;;;;;6.27;2.10;;;;;;;;;;4951533;29;20207;-65
2022/03/09 08:01:07;;;;;;;2.60;1.90;;;;;;;;;;4941834;28;20207;-65
2022/03/09 08:03:34;;;;;;;2.00;1.80;;;;;;;;;;4943292;28;20583;-65
2022/03/09 08:06:01;;;;;;;2.50;1.83;;;;;;;;;;4945852;28;20303;-65
2022/03/09 08:08:30;;;;;;;4.13;2.03;;;;;;;;;;4938571;28;20298;-65
2022/03/09 08:10:57;;;;;;;4.00;2.00;;;;;;;;;;4957416;28;20214;-63
2022/03/09 08:13:24;;;;;;;3.37;2.13;;;;;;;;;;4962606;28;20216;-65
2022/03/09 08:15:51;;;;;;;2.20;1.70;;;;;;;;;;4954405;28;20225;-63
2022/03/09 08:18:18;;;;;;;2.03;1.90;;;;;;;;;;4936129;28;20652;-64
2022/03/09 08:20:45;;;;;;;3.97;2.50;;;;;;;;;;4956846;28;20221;-64
2022/03/09 08:23:12;;;;;;;4.00;2.00;;;;;;;;;;4956967;28;20218;-63
2022/03/09 08:25:41;;;;;;;2.30;1.77;;;;;;;;;;4957778;28;20226;-64
2022/03/09 08:28:08;;;;;;;4.13;1.90;;;;;;;;;;4965158;28;20662;-64
2022/03/09 08:30:35;;;;;;;6.23;2.63;;;;;;;;;;4937818;28;20689;-65
2022/03/09 08:33:02;;;;;;;2.80;2.27;;;;;;;;;;4957300;28;20304;-64
2022/03/09 08:35:29;;;;;;;2.47;2.27;;;;;;;;;;4951626;29;20732;-64
2022/03/09 08:37:56;;;;;;;7.27;2.40;;;;;;;;;;4950557;29;20219;-64
2022/03/09 08:40:23;;;;;;;3.20;2.17;;;;;;;;;;4952058;28;20230;-63
2022/03/09 08:42:51;;;;;;;4.03;2.53;;;;;;;;;;4950755;29;20218;-61
2022/03/09 08:45:19;;;;;;;2.30;2.00;;;;;;;;;;4947093;29;20210;-63
2022/03/09 08:47:46;;;;;;;3.33;2.07;;;;;;;;;;4952183;29;20254;-63
2022/03/09 08:50:13;;;;;;;4.37;2.87;;;;;;;;;;4951744;29;20322;-63
2022/03/09 08:52:40;;;;;;;4.20;2.67;;;;;;;;;;4951928;29;20694;-64
2022/03/09 08:55:08;;;;;;;4.10;2.20;;;;;;;;;;4951794;29;20292;-64
2022/03/09 08:57:35;;;;;;;3.60;2.47;;;;;;;;;;4951384;29;20304;-64
2022/03/09 09:00:05;;;;;;;3.03;2.73;;;;;;;;;;4950577;29;20203;-64
2022/03/09 09:02:32;;;;;;;3.57;2.33;;;;;;;;;;4949855;29;20226;-62
2022/03/09 09:04:59;;;;;;;4.13;2.63;;;;;;;;;;4950507;29;20207;-66
2022/03/09 09:07:26;;;;;;;2.50;2.40;;;;;;;;;;4950360;29;20693;-62
2022/03/09 09:09:53;;;;;;;7.13;2.90;;;;;;;;;;4936535;29;20231;-62
2022/03/09 09:12:20;;;;;;;3.80;2.90;;;;;;;;;;4950133;29;20211;-63
2022/03/09 09:14:47;;;;;;;4.47;2.70;;;;;;;;;;4948471;29;20211;-62
2022/03/09 09:17:16;;;;;;;2.80;2.60;;;;;;;;;;4948920;29;20227;-63
2022/03/09 09:19:43;;;;;;;2.93;2.57;;;;;;;;;;4947578;29;20207;-63
2022/03/09 09:22:10;;;;;;;3.97;3.37;;;;;;;;;;4950444;29;20219;-63
2022/03/09 09:24:37;;;;;;;3.03;2.80;;;;;;;;;;4951140;29;20213;-62
2022/03/09 09:27:04;;;;;;;3.43;2.33;;;;;;;;;;4950035;28;20210;-63
2022/03/09 09:29:32;;;;;;;4.47;2.90;;;;;;;;;;4949530;29;20245;-64
2022/03/09 09:31:59;;;;;;;3.93;2.63;;;;;;;;;;4950107;29;20608;-64
2022/03/09 09:34:27;;;;;;;3.40;2.80;;;;;;;;;;4950332;29;20594;-61
2022/03/09 09:36:54;;;;;;;3.10;2.57;;;;;;;;;;4949498;29;20240;-62
2022/03/09 09:39:21;;;;;;;3.97;3.27;;;;;;;;;;4947517;29;20658;-62
2022/03/09 09:41:51;;;;;;;2.87;2.30;;;;;;;;;;4950310;29;20294;-61
2022/03/09 09:44:18;;;;;;;2.60;2.40;;;;;;;;;;4945408;29;20211;-61
2022/03/09 09:46:45;;;;;;;4.30;2.90;;;;;;;;;;4932853;29;20216;-61
2022/03/09 09:49:13;;;;;;;3.87;2.60;;;;;;;;;;4949682;29;20239;-62
2022/03/09 09:51:42;;;;;;;3.33;1.80;;;;;;;;;;4940689;28;20262;-62
2022/03/09 09:54:10;;;;;;;2.50;2.33;;;;;;;;;;4930286;28;20243;-62
2022/03/09 09:56:38;;;;;;;2.27;2.13;;;;;;;;;;4933245;28;21074;-61
2022/03/09 09:59:06;;;;;;;2.30;2.20;;;;;;;;;;4937778;29;20211;-61
2022/03/09 10:01:33;;;;;;;2.00;1.90;;;;;;;;;;4939569;29;20222;-61
2022/03/09 10:04:00;;;;;;;2.87;2.57;;;;;;;;;;4946498;29;20222;-61
2022/03/09 10:06:27;;;;;;;2.27;2.17;;;;;;;;;;4946512;28;20211;-61
2022/03/09 10:09:03;;;;;;;2.77;2.57;;;;;;;;;;4954054;28;21020;-61
2022/03/09 10:11:46;;;;;;;2.40;2.17;;;;;;;;;;4946848;28;20219;-61
2022/03/09 10:14:14;;;;;;;3.10;2.80;;;;;;;;;;4927314;29;20211;-61
2022/03/09 10:17:00;;;;;;;3.97;2.67;;;;;;;;;;4928078;29;20224;-61
2022/03/09 10:19:31;;;;;;;3.73;2.60;;;;;;;;;;4942024;29;20218;-61
2022/03/09 10:21:58;;;;;;;3.87;2.80;;;;;;;;;;4934251;29;20210;-61
2022/03/09 10:24:35;;;;;;;3.23;2.73;;;;;;;;;;4927202;29;20215;-61
2022/03/09 10:27:02;;;;;;;2.77;2.57;;;;;;;;;;4927068;29;20218;-61
2022/03/09 10:29:29;;;;;;;2.33;2.27;;;;;;;;;;4944241;29;20242;-61
2022/03/09 10:31:59;;;;;;;3.87;2.57;;;;;;;;;;4945242;29;20262;-61
2022/03/09 10:34:29;;;;;;;2.80;2.60;;;;;;;;;;4945668;29;20256;-60
2022/03/09 10:36:57;;;;;;;2.70;2.50;;;;;;;;;;4935424;29;20212;-60
2022/03/09 10:39:24;;;;;;;4.57;2.90;;;;;;;;;;4944183;29;20210;-60
2022/03/09 10:41:53;;;;;;;3.00;2.80;;;;;;;;;;4945627;29;20219;-60
2022/03/09 10:44:20;;;;;;;4.27;2.93;;;;;;;;;;4945777;29;20222;-60
2022/03/09 10:46:48;;;;;;;5.77;3.23;;;;;;;;;;4945837;29;20629;-59
2022/03/09 10:49:16;;;;;;;2.40;2.20;;;;;;;;;;4939522;28;20235;-61
2022/03/09 10:51:44;;;;;;;2.60;2.40;;;;;;;;;;4943290;28;20215;-63
2022/03/09 10:54:16;;;;;;;3.80;2.90;;;;;;;;;;4938288;29;20218;-60
2022/03/09 10:56:43;;;;;;;3.23;2.00;;;;;;;;;;4931093;29;20848;-60
2022/03/09 10:59:13;;;;;;;3.20;2.87;;;;;;;;;;4931138;29;20207;-60
2022/03/09 11:01:41;;;;;;;3.00;2.70;;;;;;;;;;4926595;28;20216;-63
2022/03/09 11:04:12;;;;;;;4.33;2.53;;;;;;;;;;4940909;28;20214;-61
2022/03/09 11:06:42;;;;;;;3.07;2.30;;;;;;;;;;4947477;29;20305;-61
2022/03/09 11:09:10;;;;;;;3.37;2.33;;;;;;;;;;4942259;28;20238;-62
2022/03/09 11:11:38;;;;;;;3.90;2.90;;;;;;;;;;4952324;28;20226;-60
2022/03/09 11:14:05;;;;;;;2.87;2.63;;;;;;;;;;4956412;28;20326;-60
2022/03/09 11:16:34;;;;;;;3.50;2.53;;;;;;;;;;4948830;29;20243;-61
2022/03/09 11:19:03;;;;;;;2.73;2.17;;;;;;;;;;4947202;29;20215;-59
2022/03/09 11:21:30;;;;;;;3.13;2.50;;;;;;;;;;4948611;29;20207;-60
2022/03/09 11:23:57;;;;;;;2.93;2.50;;;;;;;;;;4942322;28;20270;-61
2022/03/09 11:26:26;;;;;;;2.50;2.30;;;;;;;;;;4934257;29;20228;-61
2022/03/09 11:29:01;;;;;;;2.30;2.10;;;;;;;;;;4936639;29;20242;-60
2022/03/09 11:31:43;;;;;;;4.70;2.87;;;;;;;;;;4948360;29;20452;-60
2022/03/09 11:34:30;;;;;;;3.27;2.63;;;;;;;;;;4943548;28;20233;-60
2022/03/09 11:36:58;;;;;;;3.00;2.77;;;;;;;;;;4929410;29;20222;-60
2022/03/09 11:39:25;;;;;;;2.90;2.70;;;;;;;;;;4946197;29;20701;-60
2022/03/09 11:42:19;;;;;;;3.00;2.80;;;;;;;;;;4947961;29;20701;-61
2022/03/09 11:44:47;;;;;;;3.97;2.93;;;;;;;;;;4893881;29;20219;-61
2022/03/09 11:47:15;;;;;;;3.30;3.00;;;;;;;;;;4946061;29;20207;-61
2022/03/09 11:50:01;;;;;;;6.47;3.47;;;;;;;;;;4957348;28;20234;-61
2022/03/09 11:52:28;;;;;;;4.27;2.90;;;;;;;;;;4929772;29;20215;-62
2022/03/09 11:54:58;;;;;;;3.50;2.93;;;;;;;;;;4941488;29;20222;-62
2022/03/09 11:57:26;;;;;;;3.90;3.50;;;;;;;;;;4946048;29;20219;-61
2022/03/09 12:00:08;;;;;;;3.77;2.93;;;;;;;;;;4939499;29;20207;-61
2022/03/09 12:02:40;;;;;;;3.20;2.90;;;;;;;;;;4938806;29;20215;-62
2022/03/09 12:05:08;;;;;;;2.83;2.63;;;;;;;;;;4942740;29;20294;-62
2022/03/09 12:07:59;;;;;;;3.20;2.77;;;;;;;;;;4965585;28;20221;-62
2022/03/09 12:10:45;;;;;;;3.33;2.90;;;;;;;;;;4946349;28;20228;-61
2022/03/09 12:13:14;;;;;;;3.33;3.03;;;;;;;;;;4932945;29;20587;-63
2022/03/09 12:15:59;;;;;;;4.63;3.07;;;;;;;;;;4945391;28;20305;-61
2022/03/09 12:18:34;;;;;;;3.63;3.07;;;;;;;;;;4948090;28;20215;-61
2022/03/09 12:21:01;;;;;;;6.83;3.20;;;;;;;;;;4963038;28;20214;-62
2022/03/09 12:23:29;;;;;;;5.20;3.00;;;;;;;;;;4949594;28;20215;-61
2022/03/09 12:25:58;;;;;;;2.57;2.40;;;;;;;;;;4948468;29;20644;-61
2022/03/09 12:28:43;;;;;;;4.13;2.90;;;;;;;;;;4945752;28;20725;-61
2022/03/09 12:31:19;;;;;;;4.17;3.27;;;;;;;;;;4946356;29;20230;-61
2022/03/09 12:33:49;;;;;;;3.33;2.90;;;;;;;;;;4948153;29;20637;-62
2022/03/09 12:36:17;;;;;;;3.17;2.90;;;;;;;;;;4945841;29;20652;-61
2022/03/09 12:38:45;;;;;;;5.63;3.00;;;;;;;;;;4939050;29;20445;-61
2022/03/09 12:41:24;;;;;;;3.20;2.90;;;;;;;;;;4931931;29;20756;-62
2022/03/09 12:43:52;;;;;;;5.40;3.43;;;;;;;;;;4947951;29;20677;-61
2022/03/09 12:46:20;;;;;;;6.90;3.90;;;;;;;;;;4943802;29;20366;-61
2022/03/09 12:48:48;;;;;;;4.30;2.90;;;;;;;;;;4943508;29;20450;-61
2022/03/09 12:51:15;;;;;;;4.27;2.70;;;;;;;;;;4944530;29;20317;-60
2022/03/09 12:53:44;;;;;;;5.33;3.60;;;;;;;;;;4942036;29;20227;-61
2022/03/09 12:56:14;;;;;;;3.43;3.10;;;;;;;;;;4941448;29;20208;-63
2022/03/09 12:58:41;;;;;;;5.20;3.77;;;;;;;;;;4928413;29;20212;-60
2022/03/09 13:01:09;;;;;;;3.93;3.50;;;;;;;;;;4936131;29;20216;-63
2022/03/09 13:03:36;;;;;;;6.53;4.03;;;;;;;;;;4944143;29;20203;-61
2022/03/09 13:06:08;;;;;;;4.87;4.10;;;;;;;;;;4942119;29;20219;-61
2022/03/09 13:08:36;;;;;;;4.57;3.57;;;;;;;;;;4946306;29;20622;-61
2022/03/09 13:11:04;;;;;;;3.43;3.13;;;;;;;;;;4941880;29;20270;-61
2022/03/09 13:13:31;;;;;;;4.00;3.60;;;;;;;;;;4929352;29;20215;-61
2022/03/09 13:15:59;;;;;;;5.87;3.97;;;;;;;;;;4946726;29;20217;-60
2022/03/09 13:18:27;;;;;;;6.60;3.53;;;;;;;;;;4946249;29;20211;-62
2022/03/09 13:20:54;;;;;;;4.07;3.63;;;;;;;;;;4944404;29;20696;-61
2022/03/09 13:23:27;;;;;;;7.20;3.43;;;;;;;;;;4934761;29;20222;-62
2022/03/09 13:25:54;;;;;;;3.47;3.17;;;;;;;;;;4947215;29;20237;-63
2022/03/09 13:28:28;;;;;;;4.27;3.60;;;;;;;;;;4943172;28;20234;-62
2022/03/09 13:30:55;;;;;;;4.53;3.87;;;;;;;;;;4946021;28;20321;-62
2022/03/09 13:33:23;;;;;;;5.30;3.70;;;;;;;;;;4946642;29;20278;-60
2022/03/09 13:35:51;;;;;;;4.23;3.40;;;;;;;;;;4944872;29;20214;-62
2022/03/09 13:38:24;;;;;;;3.90;3.57;;;;;;;;;;4934525;29;20218;-63
2022/03/09 13:40:52;;;;;;;2.93;2.57;;;;;;;;;;4928193;29;20270;-64
2022/03/09 13:43:19;;;;;;;4.13;3.40;;;;;;;;;;4946865;29;20239;-62
2022/03/09 13:45:47;;;;;;;6.07;3.80;;;;;;;;;;4947271;29;20398;-62
2022/03/09 13:48:22;;;;;;;4.30;3.70;;;;;;;;;;4945222;28;20221;-63
2022/03/09 13:50:59;;;;;;;3.60;3.13;;;;;;;;;;4947006;29;20270;-62
2022/03/09 13:53:31;;;;;;;7.67;3.50;;;;;;;;;;4945437;29;20210;-62
2022/03/09 13:56:00;;;;;;;4.97;3.20;;;;;;;;;;4938141;29;20449;-63
2022/03/09 13:58:27;;;;;;;5.20;3.77;;;;;;;;;;4942182;29;20610;-63
2022/03/09 14:01:04;;;;;;;4.50;3.30;;;;;;;;;;4942632;28;20307;-63
2022/03/09 14:03:32;;;;;;;4.60;3.37;;;;;;;;;;4945427;28;20215;-63
2022/03/09 14:05:59;;;;;;;6.03;3.60;;;;;;;;;;4955888;28;20302;-63
2022/03/09 14:08:27;;;;;;;5.87;4.17;;;;;;;;;;4943979;28;20215;-63
2022/03/09 14:11:08;;;;;;;4.60;3.70;;;;;;;;;;4945789;29;20294;-63
2022/03/09 14:13:36;;;;;;;3.83;3.53;;;;;;;;;;4941833;29;20242;-63
2022/03/09 14:16:04;;;;;;;3.97;3.67;;;;;;;;;;4945497;29;20247;-63
2022/03/09 14:18:31;;;;;;;4.13;3.33;;;;;;;;;;4941283;29;20211;-63
2022/03/09 14:20:58;;;;;;;5.33;3.90;;;;;;;;;;4945103;29;20203;-63
2022/03/09 14:23:27;;;;;;;4.20;3.47;;;;;;;;;;4941436;29;20211;-63
2022/03/09 14:25:54;;;;;;;4.43;3.80;;;;;;;;;;4944488;29;20238;-61
2022/03/09 14:28:23;;;;;;;4.47;3.90;;;;;;;;;;4945929;29;20242;-67
2022/03/09 14:30:50;;;;;;;4.20;3.27;;;;;;;;;;4945863;29;20230;-61
2022/03/09 14:33:17;;;;;;;4.23;3.40;;;;;;;;;;4940307;29;20759;-61
2022/03/09 14:35:44;;;;;;;4.20;3.30;;;;;;;;;;4931390;29;20215;-63
2022/03/09 14:38:11;;;;;;;3.93;3.53;;;;;;;;;;4942459;29;20207;-61
2022/03/09 14:40:38;;;;;;;5.50;3.80;;;;;;;;;;4935227;28;20206;-62
2022/03/09 14:43:05;;;;;;;5.40;4.00;;;;;;;;;;4941032;29;20211;-61
2022/03/09 14:45:34;;;;;;;4.83;3.33;;;;;;;;;;4942200;29;20211;-63
2022/03/09 14:48:02;;;;;;;3.90;3.43;;;;;;;;;;4944457;29;20234;-60
2022/03/09 14:50:29;;;;;;;4.17;3.83;;;;;;;;;;4944818;29;20231;-66
2022/03/09 14:52:57;;;;;;;5.17;3.60;;;;;;;;;;4942165;29;20257;-61